Time,TemperatureF,DewpointF,PressureIn,WindDirection,WindDirectionDegrees,WindSpeedMPH,WindSpeedGustMPH,Humidity,HourlyPrecipIn,Conditions,Clouds,dailyrainin,SoftwareType,DateUTC
2013-10-17 00:04:00,55.6,55.6,29.71,East,82,0.0,0.0,100,0.02,RA,OVC,0.02,WeatherDisplay:10.37,2013-10-17 04:04:00,
2013-10-17 00:09:00,55.6,55.6,29.71,East,89,0.0,0.0,100,0.02,RA,OVC,0.03,WeatherDisplay:10.37,2013-10-17 04:09:00,
2013-10-17 00:14:00,55.6,55.6,29.70,ESE,106,0.0,0.0,100,0.02,RA,OVC,0.05,WeatherDisplay:10.37,2013-10-17 04:14:00,
2013-10-17 00:19:00,55.7,55.7,29.70,SE,141,0.0,1.0,100,0.01,RA,OVC,0.05,WeatherDisplay:10.37,2013-10-17 04:19:00,
2013-10-17 00:24:00,55.8,55.8,29.70,SSW,210,0.0,1.0,100,0.01,RA,OVC,0.06,WeatherDisplay:10.37,2013-10-17 04:24:00,
2013-10-17 00:29:00,55.9,55.9,29.70,WSW,242,2.0,5.0,100,0.01,RA,OVC,0.08,WeatherDisplay:10.37,2013-10-17 04:29:00,
2013-10-17 00:34:00,56.1,56.1,29.70,SW,226,0.0,5.0,100,0.02,RA,OVC,0.09,WeatherDisplay:10.37,2013-10-17 04:34:00,
2013-10-17 00:39:00,56.1,56.1,29.70,SSW,208,0.0,3.0,100,0.01,RA,OVC,0.09,WeatherDisplay:10.37,2013-10-17 04:39:00,
2013-10-17 00:44:00,56.1,56.1,29.70,SSW,203,0.0,2.0,100,0.00,RA,OVC,0.10,WeatherDisplay:10.37,2013-10-17 04:44:00,
2013-10-17 00:49:00,56.2,56.2,29.70,SSW,210,0.0,1.0,100,0.02,RA,OVC,0.11,WeatherDisplay:10.37,2013-10-17 04:49:00,
2013-10-17 00:54:00,56.2,56.2,29.69,East,84,0.0,1.0,100,0.02,RA,OVC,0.13,WeatherDisplay:10.37,2013-10-17 04:54:00,
2013-10-17 00:59:00,56.3,56.3,29.69,ESE,106,0.0,2.0,100,0.00,RA,OVC,0.13,WeatherDisplay:10.37,2013-10-17 04:59:00,
2013-10-17 01:04:00,56.3,56.3,29.70,SSE,168,0.0,3.0,100,0.01,RA,OVC,0.13,WeatherDisplay:10.37,2013-10-17 05:04:00,
2013-10-17 01:09:00,56.4,56.4,29.70,South,190,0.0,2.0,100,0.01,RA,OVC,0.14,WeatherDisplay:10.37,2013-10-17 05:09:00,
2013-10-17 01:14:00,56.4,56.4,29.69,SSE,160,0.0,0.0,100,0.01,RA,OVC,0.15,WeatherDisplay:10.37,2013-10-17 05:14:00,
2013-10-17 01:19:00,56.5,56.5,29.69,SSE,167,0.0,5.0,100,0.00,RA,OVC,0.15,WeatherDisplay:10.37,2013-10-17 05:19:00,
2013-10-17 01:24:00,56.5,56.5,29.70,South,182,0.0,1.0,100,0.00,OVC,OVC,0.15,WeatherDisplay:10.37,2013-10-17 05:24:00,
2013-10-17 01:29:00,56.6,56.6,29.69,SSW,202,1.0,4.0,100,0.01,RA,OVC,0.16,WeatherDisplay:10.37,2013-10-17 05:29:00,
2013-10-17 01:34:00,56.7,56.7,29.69,SSW,194,1.0,7.0,100,0.00,RA,OVC,0.16,WeatherDisplay:10.37,2013-10-17 05:34:00,
2013-10-17 01:39:00,56.8,56.8,29.69,SSW,204,1.0,5.0,100,0.01,RA,OVC,0.17,WeatherDisplay:10.37,2013-10-17 05:39:00,
2013-10-17 01:44:00,56.9,56.9,29.69,SW,220,0.0,6.0,100,0.00,RA,OVC,0.17,WeatherDisplay:10.37,2013-10-17 05:44:00,
2013-10-17 01:49:00,56.9,56.9,29.69,SW,229,0.0,6.0,100,0.00,OVC,OVC,0.17,WeatherDisplay:10.37,2013-10-17 05:49:00,
2013-10-17 01:54:00,56.9,56.9,29.68,SW,229,3.0,8.0,100,0.00,OVC,OVC,0.17,WeatherDisplay:10.37,2013-10-17 05:54:00,
2013-10-17 01:59:00,57.0,57.0,29.68,WSW,240,0.0,5.0,100,0.01,RA,OVC,0.17,WeatherDisplay:10.37,2013-10-17 05:59:00,
2013-10-17 02:04:00,57.0,57.0,29.68,SW,226,0.0,6.0,100,0.02,RA,OVC,0.19,WeatherDisplay:10.37,2013-10-17 06:04:00,
2013-10-17 02:09:00,57.0,57.0,29.68,SW,215,0.0,8.0,100,0.01,RA,OVC,0.20,WeatherDisplay:10.37,2013-10-17 06:09:00,
2013-10-17 02:14:00,57.0,57.0,29.68,SSW,203,1.0,10.0,100,0.01,RA,OVC,0.20,WeatherDisplay:10.37,2013-10-17 06:14:00,
2013-10-17 02:19:00,57.0,57.0,29.68,SW,224,2.0,6.0,100,0.00,RA,OVC,0.20,WeatherDisplay:10.37,2013-10-17 06:19:00,
2013-10-17 02:24:00,57.1,57.1,29.68,SW,233,1.0,8.0,100,0.01,RA,OVC,0.21,WeatherDisplay:10.37,2013-10-17 06:24:00,
2013-10-17 02:29:00,57.1,57.1,29.68,SW,232,2.0,12.0,100,0.00,RA,OVC,0.21,WeatherDisplay:10.37,2013-10-17 06:29:00,
2013-10-17 02:34:00,57.1,57.1,29.69,WSW,239,3.0,7.0,100,0.00,OVC,OVC,0.21,WeatherDisplay:10.37,2013-10-17 06:34:00,
2013-10-17 02:39:00,57.1,57.1,29.68,WSW,239,1.0,8.0,100,0.00,OVC,OVC,0.21,WeatherDisplay:10.37,2013-10-17 06:39:00,
2013-10-17 02:49:00,57.0,57.0,29.69,WSW,243,2.0,7.0,100,0.00,OVC,OVC,0.21,WeatherDisplay:10.37,2013-10-17 06:49:00,
2013-10-17 02:54:00,56.9,56.9,29.68,SW,230,0.0,6.0,100,0.00,OVC,OVC,0.21,WeatherDisplay:10.37,2013-10-17 06:54:00,
2013-10-17 02:59:00,56.8,56.8,29.68,SW,227,2.0,10.0,100,0.00,OVC,OVC,0.21,WeatherDisplay:10.37,2013-10-17 06:59:00,
2013-10-17 03:04:00,56.8,56.8,29.68,WSW,240,2.0,6.0,100,0.00,OVC,OVC,0.21,WeatherDisplay:10.37,2013-10-17 07:04:00,
2013-10-17 03:09:00,56.7,56.7,29.69,WSW,255,1.0,8.0,100,0.00,OVC,OVC,0.21,WeatherDisplay:10.37,2013-10-17 07:09:00,
2013-10-17 03:14:00,56.6,56.6,29.69,WSW,241,2.0,10.0,100,0.00,OVC,OVC,0.21,WeatherDisplay:10.37,2013-10-17 07:14:00,
2013-10-17 03:19:00,56.4,56.4,29.69,SW,233,1.0,7.0,100,0.00,OVC,OVC,0.21,WeatherDisplay:10.37,2013-10-17 07:19:00,
2013-10-17 03:24:00,56.3,56.3,29.69,WSW,244,0.0,5.0,100,0.00,OVC,OVC,0.21,WeatherDisplay:10.37,2013-10-17 07:24:00,
2013-10-17 03:29:00,56.1,56.1,29.69,WNW,286,2.0,6.0,100,0.00,OVC,OVC,0.21,WeatherDisplay:10.37,2013-10-17 07:29:00,
2013-10-17 03:34:00,55.8,55.8,29.69,WNW,295,1.0,5.0,100,0.00,OVC,OVC,0.21,WeatherDisplay:10.37,2013-10-17 07:34:00,
2013-10-17 03:39:00,55.4,55.4,29.69,West,277,1.0,4.0,100,0.00,OVC,OVC,0.21,WeatherDisplay:10.37,2013-10-17 07:39:00,
2013-10-17 03:44:00,55.1,55.1,29.69,West,259,1.0,6.0,100,0.00,OVC,OVC,0.21,WeatherDisplay:10.37,2013-10-17 07:44:00,
2013-10-17 03:49:00,55.0,55.0,29.69,WSW,253,0.0,3.0,100,0.00,OVC,OVC,0.21,WeatherDisplay:10.37,2013-10-17 07:49:00,
2013-10-17 03:54:00,54.8,54.8,29.68,West,269,0.0,3.0,100,0.00,OVC,OVC,0.21,WeatherDisplay:10.37,2013-10-17 07:54:00,
2013-10-17 03:59:00,54.7,54.7,29.69,West,272,1.0,4.0,100,0.00,OVC,OVC,0.21,WeatherDisplay:10.37,2013-10-17 07:59:00,
2013-10-17 04:04:00,54.5,54.5,29.69,WSW,246,0.0,4.0,100,0.00,OVC,OVC,0.21,WeatherDisplay:10.37,2013-10-17 08:04:00,
2013-10-17 04:09:00,54.2,54.2,29.69,SW,235,0.0,2.0,100,0.00,OVC,OVC,0.21,WeatherDisplay:10.37,2013-10-17 08:09:00,
2013-10-17 04:14:00,53.9,53.9,29.69,SW,226,0.0,3.0,100,0.00,BKN,OVC,0.21,WeatherDisplay:10.37,2013-10-17 08:14:00,
2013-10-17 04:19:00,53.7,53.7,29.69,SW,225,0.0,3.0,100,0.00,BKN,OVC,0.21,WeatherDisplay:10.37,2013-10-17 08:19:00,
2013-10-17 04:24:00,53.5,53.5,29.69,SW,228,0.0,2.0,100,0.00,BKN,OVC,0.21,WeatherDisplay:10.37,2013-10-17 08:24:00,
2013-10-17 04:29:00,53.2,53.2,29.69,SW,229,0.0,0.0,100,0.00,BKN,OVC,0.21,WeatherDisplay:10.37,2013-10-17 08:29:00,
2013-10-17 04:34:00,53.0,53.0,29.69,WSW,239,0.0,2.0,100,0.00,BKN,OVC,0.21,WeatherDisplay:10.37,2013-10-17 08:34:00,
2013-10-17 04:39:00,53.1,53.1,29.69,WSW,244,0.0,0.0,100,0.00,BKN,OVC,0.21,WeatherDisplay:10.37,2013-10-17 08:39:00,
2013-10-17 04:44:00,53.0,53.0,29.70,WSW,240,0.0,0.0,100,0.00,BKN,OVC,0.21,WeatherDisplay:10.37,2013-10-17 08:44:00,
2013-10-17 04:49:00,53.0,53.0,29.70,West,264,0.0,1.0,100,0.00,BKN,OVC,0.21,WeatherDisplay:10.37,2013-10-17 08:49:00,
2013-10-17 04:54:00,53.0,53.0,29.70,WNW,288,0.0,2.0,100,0.00,BKN,OVC,0.21,WeatherDisplay:10.37,2013-10-17 08:54:00,
2013-10-17 04:59:00,53.0,53.0,29.70,WNW,292,0.0,2.0,100,0.00,BKN,OVC,0.21,WeatherDisplay:10.37,2013-10-17 08:59:00,
2013-10-17 05:04:00,52.9,52.9,29.70,WNW,291,0.0,1.0,100,0.00,BKN,OVC,0.21,WeatherDisplay:10.37,2013-10-17 09:04:00,
2013-10-17 05:09:00,52.8,52.8,29.70,WNW,285,0.0,0.0,100,0.00,BKN,OVC,0.21,WeatherDisplay:10.37,2013-10-17 09:09:00,
2013-10-17 05:14:00,52.6,52.6,29.70,WNW,285,0.0,0.0,100,0.00,OVC,OVC,0.21,WeatherDisplay:10.37,2013-10-17 09:14:00,
2013-10-17 05:19:00,52.5,52.5,29.71,WNW,286,0.0,2.0,100,0.00,OVC,OVC,0.21,WeatherDisplay:10.37,2013-10-17 09:19:00,
2013-10-17 05:24:00,52.3,52.3,29.71,WNW,285,0.0,2.0,100,0.00,OVC,OVC,0.21,WeatherDisplay:10.37,2013-10-17 09:24:00,
2013-10-17 05:29:00,52.3,52.3,29.71,West,265,0.0,2.0,100,0.00,OVC,OVC,0.21,WeatherDisplay:10.37,2013-10-17 09:29:00,
2013-10-17 05:34:00,52.1,52.1,29.71,WSW,255,0.0,2.0,100,0.00,OVC,OVC,0.21,WeatherDisplay:10.37,2013-10-17 09:34:00,
2013-10-17 05:39:00,51.9,51.9,29.71,WSW,253,0.0,2.0,100,0.00,OVC,OVC,0.21,WeatherDisplay:10.37,2013-10-17 09:39:00,
2013-10-17 05:44:00,51.8,51.8,29.71,WSW,254,0.0,2.0,100,0.00,OVC,OVC,0.21,WeatherDisplay:10.37,2013-10-17 09:44:00,
2013-10-17 05:49:00,51.6,51.6,29.71,WSW,248,0.0,1.0,100,0.00,OVC,OVC,0.21,WeatherDisplay:10.37,2013-10-17 09:49:00,
2013-10-17 05:54:00,51.4,51.4,29.71,WSW,241,0.0,4.0,100,0.00,OVC,OVC,0.21,WeatherDisplay:10.37,2013-10-17 09:54:00,
2013-10-17 05:59:00,51.4,51.4,29.72,SW,234,0.0,2.0,100,0.00,OVC,OVC,0.21,WeatherDisplay:10.37,2013-10-17 09:59:00,
2013-10-17 06:04:00,51.3,51.3,29.71,SW,231,0.0,1.0,100,0.00,OVC,OVC,0.21,WeatherDisplay:10.37,2013-10-17 10:04:00,
2013-10-17 06:09:00,51.4,51.4,29.71,SW,233,0.0,3.0,100,0.00,OVC,OVC,0.21,WeatherDisplay:10.37,2013-10-17 10:09:00,
2013-10-17 06:14:00,51.4,51.4,29.72,WSW,246,0.0,3.0,100,0.01,RA,OVC,0.22,WeatherDisplay:10.37,2013-10-17 10:14:00,
2013-10-17 06:19:00,51.4,51.4,29.72,WSW,245,1.0,3.0,100,0.00,RA,OVC,0.22,WeatherDisplay:10.37,2013-10-17 10:19:00,
2013-10-17 06:24:00,51.8,51.8,29.72,WSW,248,1.0,3.0,100,0.00,OVC,OVC,0.22,WeatherDisplay:10.37,2013-10-17 10:24:00,
2013-10-17 06:29:00,51.9,51.9,29.72,West,266,1.0,3.0,100,0.00,OVC,OVC,0.22,WeatherDisplay:10.37,2013-10-17 10:29:00,
2013-10-17 06:34:00,51.7,51.7,29.72,WSW,248,1.0,3.0,100,0.00,OVC,OVC,0.22,WeatherDisplay:10.37,2013-10-17 10:34:00,
2013-10-17 06:39:00,51.7,51.7,29.72,WSW,255,0.0,5.0,100,0.00,OVC,OVC,0.22,WeatherDisplay:10.37,2013-10-17 10:39:00,
2013-10-17 06:44:00,51.7,51.7,29.72,WSW,255,1.0,5.0,100,0.00,OVC,OVC,0.22,WeatherDisplay:10.37,2013-10-17 10:44:00,
2013-10-17 06:54:00,51.3,51.3,29.72,West,264,0.0,5.0,100,0.00,OVC,OVC,0.22,WeatherDisplay:10.37,2013-10-17 10:54:00,
2013-10-17 06:59:00,51.2,51.2,29.72,SW,235,0.0,7.0,100,0.00,OVC,OVC,0.22,WeatherDisplay:10.37,2013-10-17 10:59:00,
2013-10-17 07:04:00,51.0,51.0,29.72,SW,235,1.0,4.0,100,0.00,OVC,OVC,0.22,WeatherDisplay:10.37,2013-10-17 11:04:00,
2013-10-17 07:09:00,50.8,50.8,29.73,SW,235,1.0,8.0,100,0.00,OVC,OVC,0.22,WeatherDisplay:10.37,2013-10-17 11:09:00,
2013-10-17 07:14:00,50.6,50.6,29.73,WSW,239,1.0,5.0,100,0.00,FEW,OVC,0.22,WeatherDisplay:10.37,2013-10-17 11:14:00,
2013-10-17 07:19:00,50.4,50.4,29.73,SW,236,1.0,6.0,100,0.00,FEW,OVC,0.22,WeatherDisplay:10.37,2013-10-17 11:19:00,
2013-10-17 07:24:00,50.2,50.2,29.73,WSW,257,2.0,5.0,100,0.00,FEW,OVC,0.22,WeatherDisplay:10.37,2013-10-17 11:24:00,
2013-10-17 07:29:00,49.9,49.9,29.73,WSW,246,1.0,5.0,100,0.00,FEW,OVC,0.22,WeatherDisplay:10.37,2013-10-17 11:29:00,
2013-10-17 07:34:00,49.8,49.8,29.73,SW,234,0.0,5.0,100,0.00,FEW,OVC,0.22,WeatherDisplay:10.37,2013-10-17 11:34:00,
2013-10-17 07:39:00,49.7,49.7,29.73,SW,230,0.0,3.0,100,0.00,FEW,OVC,0.22,WeatherDisplay:10.37,2013-10-17 11:39:00,
2013-10-17 07:44:00,49.7,49.7,29.74,WSW,237,0.0,4.0,100,0.00,FEW,OVC,0.22,WeatherDisplay:10.37,2013-10-17 11:44:00,
2013-10-17 07:49:00,49.9,49.9,29.74,WSW,246,1.0,6.0,100,0.00,FEW,OVC,0.22,WeatherDisplay:10.37,2013-10-17 11:49:00,
2013-10-17 07:54:00,50.1,50.1,29.74,West,263,1.0,7.0,100,0.00,FEW,OVC,0.22,WeatherDisplay:10.37,2013-10-17 11:54:00,
2013-10-17 07:59:00,50.3,50.3,29.74,West,260,2.0,8.0,100,0.00,FEW,OVC,0.22,WeatherDisplay:10.37,2013-10-17 11:59:00,
2013-10-17 08:04:00,50.4,50.4,29.74,WSW,250,1.0,5.0,100,0.00,FEW,OVC,0.22,WeatherDisplay:10.37,2013-10-17 12:04:00,
2013-10-17 08:09:00,50.5,50.5,29.75,West,265,1.0,6.0,100,0.00,FEW,OVC,0.22,WeatherDisplay:10.37,2013-10-17 12:09:00,
2013-10-17 08:14:00,50.4,50.4,29.75,West,274,2.0,8.0,100,0.00,BKN,OVC,0.22,WeatherDisplay:10.37,2013-10-17 12:14:00,
2013-10-17 08:19:00,50.5,50.5,29.75,West,277,3.0,6.0,100,0.00,BKN,OVC,0.22,WeatherDisplay:10.37,2013-10-17 12:19:00,
2013-10-17 08:24:00,50.6,50.6,29.75,West,267,1.0,6.0,100,0.00,BKN,OVC,0.22,WeatherDisplay:10.37,2013-10-17 12:24:00,
2013-10-17 08:29:00,50.7,50.7,29.75,West,273,1.0,6.0,100,0.00,BKN,OVC,0.22,WeatherDisplay:10.37,2013-10-17 12:29:00,
2013-10-17 08:34:00,50.8,50.8,29.75,West,275,1.0,4.0,100,0.00,BKN,OVC,0.22,WeatherDisplay:10.37,2013-10-17 12:34:00,
2013-10-17 08:39:00,50.8,50.8,29.75,West,277,0.0,6.0,100,0.00,BKN,OVC,0.22,WeatherDisplay:10.37,2013-10-17 12:39:00,
2013-10-17 08:44:00,51.1,51.1,29.75,West,264,1.0,4.0,100,0.00,BKN,OVC,0.22,WeatherDisplay:10.37,2013-10-17 12:44:00,
2013-10-17 08:49:00,51.2,51.2,29.75,WNW,285,1.0,7.0,100,0.00,BKN,OVC,0.22,WeatherDisplay:10.37,2013-10-17 12:49:00,
2013-10-17 08:54:00,51.3,51.3,29.75,WSW,256,1.0,7.0,100,0.00,BKN,OVC,0.22,WeatherDisplay:10.37,2013-10-17 12:54:00,
2013-10-17 08:59:00,51.3,51.3,29.75,West,261,1.0,4.0,100,0.00,BKN,OVC,0.22,WeatherDisplay:10.37,2013-10-17 12:59:00,
2013-10-17 09:04:00,51.5,51.5,29.75,WSW,239,2.0,8.0,100,0.00,BKN,OVC,0.22,WeatherDisplay:10.37,2013-10-17 13:04:00,
2013-10-17 09:09:00,51.6,51.6,29.75,WSW,248,2.0,7.0,100,0.00,BKN,OVC,0.22,WeatherDisplay:10.37,2013-10-17 13:09:00,
2013-10-17 09:14:00,51.8,51.8,29.75,WNW,290,1.0,10.0,100,0.00,BKN,OVC,0.22,WeatherDisplay:10.37,2013-10-17 13:14:00,
2013-10-17 09:19:00,52.1,52.1,29.75,WNW,284,2.0,5.0,100,0.00,BKN,OVC,0.22,WeatherDisplay:10.37,2013-10-17 13:19:00,
2013-10-17 09:24:00,52.1,52.1,29.75,WNW,282,1.0,7.0,100,0.00,BKN,OVC,0.22,WeatherDisplay:10.37,2013-10-17 13:24:00,
2013-10-17 09:34:00,52.1,51.0,29.75,West,269,1.0,6.0,96,0.00,BKN,OVC,0.22,WeatherDisplay:10.37,2013-10-17 13:34:00,
2013-10-17 09:39:00,52.2,51.1,29.75,West,278,0.0,9.0,96,0.00,BKN,OVC,0.22,WeatherDisplay:10.37,2013-10-17 13:39:00,
2013-10-17 09:44:00,52.5,51.4,29.75,NW,310,2.0,5.0,96,0.00,BKN,OVC,0.22,WeatherDisplay:10.37,2013-10-17 13:44:00,
2013-10-17 09:49:00,52.7,51.6,29.75,WNW,288,2.0,6.0,96,0.00,BKN,OVC,0.22,WeatherDisplay:10.37,2013-10-17 13:49:00,
2013-10-17 09:54:00,52.7,51.3,29.75,West,278,2.0,5.0,95,0.00,BKN,OVC,0.22,WeatherDisplay:10.37,2013-10-17 13:54:00,
2013-10-17 09:59:00,52.9,51.5,29.75,WNW,287,5.0,9.0,95,0.00,BKN,OVC,0.22,WeatherDisplay:10.37,2013-10-17 13:59:00,
2013-10-17 10:04:00,53.2,51.5,29.75,West,265,2.0,7.0,94,0.00,BKN,OVC,0.22,WeatherDisplay:10.37,2013-10-17 14:04:00,
2013-10-17 10:09:00,53.9,52.5,29.76,West,269,5.0,8.0,95,0.00,BKN,OVC,0.22,WeatherDisplay:10.37,2013-10-17 14:09:00,
2013-10-17 10:14:00,54.1,52.4,29.76,WSW,258,1.0,7.0,94,0.00,BKN,OVC,0.22,WeatherDisplay:10.37,2013-10-17 14:14:00,
2013-10-17 10:19:00,54.3,52.3,29.75,WSW,247,3.0,7.0,93,0.00,BKN,OVC,0.22,WeatherDisplay:10.37,2013-10-17 14:19:00,
2013-10-17 10:24:00,54.4,52.1,29.76,WSW,251,2.0,8.0,92,0.00,BKN,OVC,0.22,WeatherDisplay:10.37,2013-10-17 14:24:00,
2013-10-17 10:29:00,54.7,52.4,29.76,WSW,250,5.0,10.0,92,0.00,BKN,OVC,0.22,WeatherDisplay:10.37,2013-10-17 14:29:00,
2013-10-17 10:34:00,54.4,51.9,29.76,West,261,2.0,10.0,91,0.00,BKN,OVC,0.22,WeatherDisplay:10.37,2013-10-17 14:34:00,
2013-10-17 10:39:00,55.0,52.7,29.75,WSW,258,1.0,7.0,92,0.00,BKN,OVC,0.22,WeatherDisplay:10.37,2013-10-17 14:39:00,
2013-10-17 10:44:00,55.2,52.3,29.76,SW,228,2.0,12.0,90,0.00,BKN,OVC,0.22,WeatherDisplay:10.37,2013-10-17 14:44:00,
2013-10-17 10:49:00,54.7,51.8,29.76,WSW,250,3.0,8.0,90,0.00,BKN,OVC,0.22,WeatherDisplay:10.37,2013-10-17 14:49:00,
2013-10-17 10:54:00,55.0,52.4,29.76,WSW,258,3.0,7.0,91,0.00,BKN,OVC,0.22,WeatherDisplay:10.37,2013-10-17 14:54:00,
2013-10-17 10:59:00,55.5,52.3,29.75,West,270,1.0,10.0,89,0.00,BKN,OVC,0.22,WeatherDisplay:10.37,2013-10-17 14:59:00,
2013-10-17 11:04:00,56.0,52.8,29.76,WSW,251,3.0,8.0,89,0.00,BKN,OVC,0.22,WeatherDisplay:10.37,2013-10-17 15:04:00,
2013-10-17 11:09:00,56.3,52.5,29.76,WNW,295,3.0,8.0,87,0.00,BKN,OVC,0.22,WeatherDisplay:10.37,2013-10-17 15:09:00,
2013-10-17 11:14:00,57.0,53.7,29.76,WNW,303,2.0,8.0,89,0.00,BKN,OVC,0.22,WeatherDisplay:10.37,2013-10-17 15:14:00,
2013-10-17 11:19:00,57.6,53.4,29.76,West,277,3.0,10.0,86,0.00,BKN,OVC,0.22,WeatherDisplay:10.37,2013-10-17 15:19:00,
2013-10-17 11:24:00,57.0,52.5,29.76,WSW,251,2.0,9.0,85,0.00,BKN,OVC,0.22,WeatherDisplay:10.37,2013-10-17 15:24:00,
2013-10-17 11:29:00,56.5,52.1,29.76,West,277,3.0,10.0,85,0.00,BKN,OVC,0.22,WeatherDisplay:10.37,2013-10-17 15:29:00,
2013-10-17 11:34:00,56.6,52.7,29.76,West,279,1.0,8.0,87,0.00,BKN,OVC,0.22,WeatherDisplay:10.37,2013-10-17 15:34:00,
2013-10-17 11:39:00,56.5,52.4,29.76,SW,234,2.0,10.0,86,0.00,BKN,OVC,0.22,WeatherDisplay:10.37,2013-10-17 15:39:00,
2013-10-17 11:44:00,56.2,51.7,29.76,WSW,257,2.0,10.0,85,0.00,BKN,OVC,0.22,WeatherDisplay:10.37,2013-10-17 15:44:00,
2013-10-17 11:49:00,56.3,52.2,29.76,WSW,248,2.0,7.0,86,0.00,BKN,OVC,0.22,WeatherDisplay:10.37,2013-10-17 15:49:00,
2013-10-17 11:54:00,56.6,52.1,29.76,WSW,247,1.0,9.0,85,0.00,BKN,OVC,0.22,WeatherDisplay:10.37,2013-10-17 15:54:00,
2013-10-17 11:59:00,56.7,52.6,29.76,WSW,239,2.0,9.0,86,0.00,BKN,OVC,0.22,WeatherDisplay:10.37,2013-10-17 15:59:00,
2013-10-17 12:04:00,56.7,52.2,29.76,SW,234,2.0,7.0,85,0.00,BKN,OVC,0.22,WeatherDisplay:10.37,2013-10-17 16:04:00,
2013-10-17 12:09:00,56.8,52.3,29.75,WSW,240,2.0,7.0,85,0.00,BKN,OVC,0.22,WeatherDisplay:10.37,2013-10-17 16:09:00,
2013-10-17 12:14:00,57.0,52.5,29.75,SW,227,3.0,7.0,85,0.00,BKN,OVC,0.22,WeatherDisplay:10.37,2013-10-17 16:14:00,
2013-10-17 12:19:00,56.8,52.0,29.75,West,280,5.0,8.0,84,0.00,BKN,OVC,0.22,WeatherDisplay:10.37,2013-10-17 16:19:00,
2013-10-17 12:24:00,56.9,52.4,29.75,WNW,284,3.0,9.0,85,0.00,BKN,OVC,0.22,WeatherDisplay:10.37,2013-10-17 16:24:00,
2013-10-17 12:29:00,57.2,52.4,29.75,WSW,256,3.0,9.0,84,0.00,BKN,OVC,0.22,WeatherDisplay:10.37,2013-10-17 16:29:00,
2013-10-17 12:34:00,57.5,52.7,29.75,SW,234,2.0,9.0,84,0.00,BKN,OVC,0.22,WeatherDisplay:10.37,2013-10-17 16:34:00,
2013-10-17 12:39:00,58.0,52.5,29.75,West,264,3.0,12.0,82,0.00,BKN,OVC,0.22,WeatherDisplay:10.37,2013-10-17 16:39:00,
2013-10-17 12:44:00,57.8,52.0,29.75,West,261,5.0,12.0,81,0.00,BKN,OVC,0.22,WeatherDisplay:10.37,2013-10-17 16:44:00,
2013-10-17 12:49:00,57.7,51.9,29.75,West,267,3.0,9.0,81,0.00,BKN,OVC,0.22,WeatherDisplay:10.37,2013-10-17 16:49:00,
2013-10-17 12:54:00,57.5,51.7,29.75,WSW,248,3.0,9.0,81,0.00,BKN,OVC,0.22,WeatherDisplay:10.37,2013-10-17 16:54:00,
2013-10-17 12:59:00,57.3,51.2,29.75,SW,234,5.0,10.0,80,0.00,BKN,OVC,0.22,WeatherDisplay:10.37,2013-10-17 16:59:00,
2013-10-17 13:04:00,57.4,51.3,29.75,WSW,242,3.0,10.0,80,0.00,BKN,OVC,0.22,WeatherDisplay:10.37,2013-10-17 17:04:00,
2013-10-17 13:09:00,58.0,51.8,29.75,WSW,252,5.0,12.0,80,0.00,BKN,OVC,0.22,WeatherDisplay:10.37,2013-10-17 17:09:00,
2013-10-17 13:14:00,58.5,51.3,29.75,West,264,3.0,10.0,77,0.00,BKN,OVC,0.22,WeatherDisplay:10.37,2013-10-17 17:14:00,
2013-10-17 13:19:00,58.7,51.2,29.74,West,278,5.0,10.0,76,0.00,BKN,OVC,0.22,WeatherDisplay:10.37,2013-10-17 17:19:00,
2013-10-17 13:24:00,58.7,50.8,29.74,WNW,290,3.0,15.0,75,0.00,BKN,OVC,0.22,WeatherDisplay:10.37,2013-10-17 17:24:00,
2013-10-17 13:29:00,58.3,50.1,29.74,WNW,288,3.0,13.0,74,0.00,BKN,OVC,0.22,WeatherDisplay:10.37,2013-10-17 17:29:00,
2013-10-17 13:34:00,58.0,50.1,29.74,West,265,2.0,9.0,75,0.00,BKN,OVC,0.22,WeatherDisplay:10.37,2013-10-17 17:34:00,
2013-10-17 13:39:00,59.2,51.6,29.74,WSW,251,3.0,8.0,76,0.00,BKN,OVC,0.22,WeatherDisplay:10.37,2013-10-17 17:39:00,
2013-10-17 13:44:00,59.6,50.9,29.74,WSW,254,6.0,12.0,73,0.00,BKN,OVC,0.22,WeatherDisplay:10.37,2013-10-17 17:44:00,
2013-10-17 15:25:00,60.3,50.1,29.74,WSW,249,1.0,9.0,69,0.00,BKN,OVC,0.22,WeatherDisplay:10.37,2013-10-17 19:25:00,
2013-10-17 15:30:00,60.4,50.2,29.74,SW,228,3.0,10.0,69,0.00,BKN,OVC,0.22,WeatherDisplay:10.37,2013-10-17 19:30:00,
2013-10-17 15:35:00,60.5,50.2,29.74,WSW,245,2.0,8.0,69,0.00,BKN,OVC,0.22,WeatherDisplay:10.37,2013-10-17 19:35:00,
2013-10-17 15:50:00,60.6,50.0,29.74,West,266,5.0,9.0,68,0.00,BKN,OVC,0.22,WeatherDisplay:10.37,2013-10-17 19:50:00,
2013-10-17 19:10:00,52.2,49.3,29.72,WNW,288,0.0,0.0,90,0.00,BKN,OVC,0.22,WeatherDisplay:10.37,2013-10-17 23:10:00,
2013-10-17 19:20:00,51.3,49.0,29.72,WNW,288,0.0,0.0,92,0.00,BKN,OVC,0.22,WeatherDisplay:10.37,2013-10-17 23:20:00,
2013-10-17 19:25:00,50.9,48.7,29.72,WNW,288,0.0,0.0,92,0.00,BKN,OVC,0.22,WeatherDisplay:10.37,2013-10-17 23:25:00,
2013-10-17 19:30:00,50.4,48.5,29.71,WNW,288,0.0,0.0,93,0.00,BKN,OVC,0.22,WeatherDisplay:10.37,2013-10-17 23:30:00,
2013-10-17 19:35:00,50.3,48.4,29.72,WNW,288,0.0,0.0,93,0.00,BKN,OVC,0.22,WeatherDisplay:10.37,2013-10-17 23:35:00,
2013-10-17 19:40:00,50.1,48.2,29.71,WNW,288,0.0,0.0,93,0.00,BKN,OVC,0.22,WeatherDisplay:10.37,2013-10-17 23:40:00,
2013-10-17 19:50:00,49.8,48.1,29.71,WNW,288,0.0,0.0,94,0.00,BKN,OVC,0.22,WeatherDisplay:10.37,2013-10-17 23:50:00,
2013-10-17 20:00:00,49.6,47.9,29.71,WNW,288,0.0,0.0,94,0.00,BKN,OVC,0.22,WeatherDisplay:10.37,2013-10-18 00:00:00,
2013-10-17 20:05:00,49.5,47.8,29.71,WNW,288,0.0,0.0,94,0.00,BKN,OVC,0.22,WeatherDisplay:10.37,2013-10-18 00:05:00,
2013-10-17 20:10:00,49.4,48.0,29.71,WNW,288,0.0,0.0,95,0.00,BKN,OVC,0.22,WeatherDisplay:10.37,2013-10-18 00:10:00,
2013-10-17 20:15:00,49.2,47.8,29.71,WNW,288,0.0,0.0,95,0.00,BKN,OVC,0.22,WeatherDisplay:10.37,2013-10-18 00:15:00,
2013-10-17 20:20:00,49.1,47.7,29.70,WNW,288,0.0,0.0,95,0.00,BKN,OVC,0.22,WeatherDisplay:10.37,2013-10-18 00:20:00,
2013-10-17 20:25:00,49.1,47.7,29.70,NW,314,0.0,0.0,95,0.00,BKN,OVC,0.22,WeatherDisplay:10.37,2013-10-18 00:25:00,
2013-10-17 20:30:00,49.2,48.1,29.70,NNW,341,0.0,0.0,96,0.00,BKN,OVC,0.22,WeatherDisplay:10.37,2013-10-18 00:30:00,
2013-10-17 20:35:00,49.0,47.6,29.70,NNW,341,0.0,0.0,95,0.00,BKN,OVC,0.22,WeatherDisplay:10.37,2013-10-18 00:35:00,
2013-10-17 20:40:00,48.7,47.3,29.69,NNW,341,0.0,0.0,95,0.00,BKN,OVC,0.22,WeatherDisplay:10.37,2013-10-18 00:40:00,
2013-10-17 20:45:00,48.6,47.2,29.70,NNW,341,0.0,0.0,95,0.00,BKN,OVC,0.22,WeatherDisplay:10.37,2013-10-18 00:45:00,
2013-10-17 20:50:00,48.5,47.4,29.70,NNW,341,0.0,0.0,96,0.00,BKN,OVC,0.22,WeatherDisplay:10.37,2013-10-18 00:50:00,
2013-10-17 20:55:00,48.4,47.3,29.70,NNW,341,0.0,0.0,96,0.00,BKN,OVC,0.22,WeatherDisplay:10.37,2013-10-18 00:55:00,
2013-10-17 21:00:00,48.2,47.2,29.71,NNW,341,0.0,0.0,96,0.00,BKN,OVC,0.22,WeatherDisplay:10.37,2013-10-18 01:00:00,
2013-10-17 21:05:00,48.3,47.2,29.71,NNW,341,0.0,0.0,96,0.00,BKN,OVC,0.22,WeatherDisplay:10.37,2013-10-18 01:05:00,
2013-10-17 21:10:00,48.4,47.3,29.71,NNW,341,0.0,0.0,96,0.00,BKN,OVC,0.22,WeatherDisplay:10.37,2013-10-18 01:10:00,
2013-10-17 21:15:00,48.6,47.5,29.71,NNW,341,0.0,0.0,96,0.00,BKN,OVC,0.22,WeatherDisplay:10.37,2013-10-18 01:15:00,
2013-10-17 21:20:00,48.6,47.5,29.71,NNW,341,0.0,0.0,96,0.00,BKN,OVC,0.22,WeatherDisplay:10.37,2013-10-18 01:20:00,
2013-10-17 21:25:00,48.8,47.7,29.71,NNW,341,0.0,0.0,96,0.00,BKN,OVC,0.22,WeatherDisplay:10.37,2013-10-18 01:25:00,
2013-10-17 21:30:00,48.8,47.7,29.71,NNW,341,0.0,0.0,96,0.00,BKN,OVC,0.22,WeatherDisplay:10.37,2013-10-18 01:30:00,
2013-10-17 21:35:00,48.9,47.8,29.71,NNW,341,0.0,0.0,96,0.00,BKN,OVC,0.22,WeatherDisplay:10.37,2013-10-18 01:35:00,
2013-10-17 21:40:00,48.9,47.8,29.70,NNW,341,0.0,0.0,96,0.00,BKN,OVC,0.22,WeatherDisplay:10.37,2013-10-18 01:40:00,
2013-10-17 21:45:00,48.9,47.8,29.70,NNW,341,0.0,0.0,96,0.00,BKN,OVC,0.22,WeatherDisplay:10.37,2013-10-18 01:45:00,
2013-10-17 21:50:00,48.9,47.8,29.70,NNW,341,0.0,0.0,96,0.00,BKN,OVC,0.22,WeatherDisplay:10.37,2013-10-18 01:50:00,
2013-10-17 21:55:00,49.0,47.9,29.70,NNW,341,0.0,0.0,96,0.00,BKN,OVC,0.22,WeatherDisplay:10.37,2013-10-18 01:55:00,
2013-10-17 22:00:00,49.0,47.9,29.70,NNW,341,0.0,0.0,96,0.00,BKN,OVC,0.22,WeatherDisplay:10.37,2013-10-18 02:00:00,
2013-10-17 22:05:00,48.9,47.9,29.69,NNW,341,0.0,0.0,96,0.00,BKN,OVC,0.22,WeatherDisplay:10.37,2013-10-18 02:05:00,
2013-10-17 22:10:00,49.0,47.9,29.70,NNW,341,0.0,0.0,96,0.00,BKN,OVC,0.22,WeatherDisplay:10.37,2013-10-18 02:10:00,
2013-10-17 22:15:00,49.1,48.0,29.70,NNW,341,0.0,0.0,96,0.00,OVC,OVC,0.22,WeatherDisplay:10.37,2013-10-18 02:15:00,
2013-10-17 22:20:00,49.2,48.1,29.70,NNW,341,0.0,0.0,96,0.00,OVC,OVC,0.22,WeatherDisplay:10.37,2013-10-18 02:20:00,
2013-10-17 22:25:00,49.3,48.2,29.70,NNW,341,0.0,0.0,96,0.00,OVC,OVC,0.22,WeatherDisplay:10.37,2013-10-18 02:25:00,
2013-10-17 22:30:00,49.4,48.0,29.69,NNW,341,0.0,0.0,95,0.00,OVC,OVC,0.22,WeatherDisplay:10.37,2013-10-18 02:30:00,
2013-10-17 22:35:00,49.4,48.0,29.70,NNW,341,0.0,0.0,95,0.00,OVC,OVC,0.22,WeatherDisplay:10.37,2013-10-18 02:35:00,
2013-10-17 22:40:00,49.5,48.1,29.69,NNW,341,0.0,0.0,95,0.00,OVC,OVC,0.22,WeatherDisplay:10.37,2013-10-18 02:40:00,
2013-10-17 22:45:00,49.6,48.5,29.69,NNW,341,0.0,0.0,96,0.00,OVC,OVC,0.22,WeatherDisplay:10.37,2013-10-18 02:45:00,
2013-10-17 22:50:00,49.5,48.1,29.69,NNW,341,0.0,0.0,95,0.00,OVC,OVC,0.22,WeatherDisplay:10.37,2013-10-18 02:50:00,
2013-10-17 22:55:00,49.5,48.1,29.68,NNW,341,0.0,0.0,95,0.00,OVC,OVC,0.22,WeatherDisplay:10.37,2013-10-18 02:55:00,
2013-10-17 23:00:00,49.4,48.0,29.68,NNW,341,0.0,0.0,95,0.00,OVC,OVC,0.22,WeatherDisplay:10.37,2013-10-18 03:00:00,
2013-10-17 23:05:00,49.4,48.0,29.69,NNW,341,0.0,0.0,95,0.00,OVC,OVC,0.22,WeatherDisplay:10.37,2013-10-18 03:05:00,
2013-10-17 23:10:00,49.5,48.1,29.68,NNW,341,0.0,0.0,95,0.00,OVC,OVC,0.22,WeatherDisplay:10.37,2013-10-18 03:10:00,
2013-10-17 23:15:00,49.5,48.4,29.68,NNW,341,0.0,0.0,96,0.00,OVC,OVC,0.22,WeatherDisplay:10.37,2013-10-18 03:15:00,
2013-10-17 23:20:00,49.6,48.2,29.68,NNW,341,0.0,0.0,95,0.00,OVC,OVC,0.22,WeatherDisplay:10.37,2013-10-18 03:20:00,
2013-10-17 23:25:00,49.6,48.2,29.68,NNW,341,0.0,0.0,95,0.00,OVC,OVC,0.22,WeatherDisplay:10.37,2013-10-18 03:25:00,
2013-10-17 23:30:00,49.6,48.3,29.67,NNW,341,0.0,0.0,95,0.00,OVC,OVC,0.22,WeatherDisplay:10.37,2013-10-18 03:30:00,
2013-10-17 23:35:00,49.6,48.2,29.67,NNW,341,0.0,0.0,95,0.00,OVC,OVC,0.22,WeatherDisplay:10.37,2013-10-18 03:35:00,
2013-10-17 23:40:00,49.5,48.5,29.67,NNW,341,0.0,0.0,96,0.00,OVC,OVC,0.22,WeatherDisplay:10.37,2013-10-18 03:40:00,
2013-10-17 23:45:00,49.5,48.4,29.66,NNW,341,0.0,0.0,96,0.00,OVC,OVC,0.22,WeatherDisplay:10.37,2013-10-18 03:45:00,
2013-10-17 23:50:00,49.6,48.5,29.66,NNW,341,0.0,0.0,96,0.00,OVC,OVC,0.22,WeatherDisplay:10.37,2013-10-18 03:50:00,
2013-10-17 23:55:00,49.7,48.6,29.66,NNW,341,0.0,0.0,96,0.00,OVC,OVC,0.22,WeatherDisplay:10.37,2013-10-18 03:55:00,